Time;durP1;ratioP1;P1;durP2;ratioP2;P2;SDS_P1;SDS_P2;PMS_P1;PMS_P2;Temp;Humidity;BMP_temperature;BMP_pressure;BME280_temperature;BME280_humidity;BME280_pressure;Samples;Min_cycle;Max_cycle;Signal;HPM_P1;HPM_P2
2022/11/09 00:00:25;;;;;;;8.93;3.50;;;12.00;1.00;;;;;;5046485;28;20438;-88
2022/11/09 00:07:02;;;;;;;9.23;3.80;;;12.00;1.00;;;;;;5019712;28;20279;-88
2022/11/09 00:16:13;;;;;;;16.30;3.80;;;12.00;1.00;;;;;;5020040;28;20821;-82
2022/11/09 00:18:40;;;;;;;9.40;3.90;;;12.10;1.00;;;;;;4999078;28;20428;-82
2022/11/09 00:21:12;;;;;;;7.40;4.23;;;12.10;1.00;;;;;;5015079;28;20455;-82
2022/11/09 00:23:38;;;;;;;5.93;3.50;;;12.00;1.00;;;;;;5018160;28;20428;-81
2022/11/09 00:26:08;;;;;;;14.33;3.70;;;12.00;1.00;;;;;;5026744;28;20423;-83
2022/11/09 00:28:46;;;;;;;9.50;3.93;;;12.00;1.00;;;;;;5027028;28;20196;-82
2022/11/09 00:31:34;;;;;;;5.83;4.23;;;12.10;1.00;;;;;;5032097;28;20825;-82
2022/11/09 00:34:16;;;;;;;6.73;5.17;;;12.10;7.30;;;;;;5027241;28;20434;-82
2022/11/09 00:36:46;;;;;;;8.17;4.87;;;12.20;18.00;;;;;;5052676;28;20429;-82
2022/11/09 00:39:46;;;;;;;8.03;4.93;;;12.30;21.00;;;;;;5049166;28;20796;-83
2022/11/09 00:42:22;;;;;;;7.63;4.73;;;12.40;25.10;;;;;;5039763;28;20463;-82
2022/11/09 00:44:48;;;;;;;12.13;5.90;;;12.40;26.40;;;;;;5052569;28;20483;-82
2022/11/09 00:47:34;;;;;;;11.80;5.63;;;12.50;32.60;;;;;;5046619;28;20431;-83
2022/11/09 00:50:34;;;;;;;7.40;4.70;;;12.50;32.60;;;;;;5049456;28;20160;-82
2022/11/09 00:53:17;;;;;;;8.03;4.80;;;12.60;27.70;;;;;;5052165;28;20437;-82
2022/11/09 00:56:10;;;;;;;11.03;5.40;;;12.70;27.10;;;;;;5046458;28;20481;-83
2022/11/09 00:58:58;;;;;;;14.70;5.63;;;12.60;26.80;;;;;;5048528;28;20456;-83
2022/11/09 01:01:40;;;;;;;10.50;5.00;;;12.60;31.80;;;;;;5052196;28;20548;-83
2022/11/09 01:04:10;;;;;;;10.07;5.50;;;12.60;45.80;;;;;;5041470;28;20476;-83
2022/11/09 01:06:40;;;;;;;6.30;5.03;;;12.60;44.10;;;;;;5051094;28;20827;-83
2022/11/09 01:09:06;;;;;;;11.30;5.60;;;12.60;44.20;;;;;;5053196;28;20468;-83
2022/11/09 01:14:53;;;;;;;8.53;5.40;;;12.70;44.40;;;;;;5043468;28;20346;-83
2022/11/09 01:20:43;;;;;;;9.80;6.53;;;12.80;44.30;;;;;;5052944;28;20174;-83
2022/11/09 01:23:28;;;;;;;8.70;5.63;;;12.90;44.60;;;;;;5055895;28;20429;-83
2022/11/09 01:29:15;;;;;;;7.67;5.47;;;13.00;44.50;;;;;;5053465;28;20397;-89
2022/11/09 01:38:41;;;;;;;13.83;6.53;;;13.10;44.50;;;;;;5037491;28;20406;-89
2022/11/09 01:44:29;;;;;;;13.10;6.00;;;13.10;44.60;;;;;;5048960;28;20409;-89
2022/11/09 01:53:43;;;;;;;18.57;6.20;;;13.00;44.50;;;;;;5044529;28;20413;-89
2022/11/09 01:56:30;;;;;;;13.43;6.90;;;13.00;52.10;;;;;;5056039;28;20516;-89
2022/11/09 02:02:17;;;;;;;6.87;5.00;;;13.10;55.60;;;;;;5039443;28;20612;-89
2022/11/09 02:04:53;;;;;;;8.23;5.80;;;13.10;57.80;;;;;;5054434;28;20465;-89
2022/11/09 02:07:28;;;;;;;8.77;5.30;;;13.20;60.50;;;;;;5056992;28;20183;-89
2022/11/09 02:10:19;;;;;;;9.00;5.40;;;13.20;63.30;;;;;;5065163;28;20428;-89
2022/11/09 02:16:09;;;;;;;11.60;6.83;;;13.20;64.20;;;;;;5048007;28;20988;-89
2022/11/09 02:21:57;;;;;;;6.80;5.10;;;13.20;74.30;;;;;;5043014;28;20459;-89
2022/11/09 02:27:58;;;;;;;13.70;5.60;;;13.30;77.00;;;;;;5045528;28;20608;-84
2022/11/09 02:40:45;;;;;;;9.03;5.13;;;13.40;73.50;;;;;;5050416;28;20765;-84
2022/11/09 02:43:58;;;;;;;6.77;4.60;;;13.40;76.20;;;;;;5050071;28;20453;-85
2022/11/09 02:46:52;;;;;;;4.70;4.20;;;13.40;80.80;;;;;;5054372;28;20436;-84
2022/11/09 02:49:22;;;;;;;7.27;5.00;;;13.40;80.00;;;;;;5054104;28;20763;-84
2022/11/09 02:59:22;;;;;;;12.50;4.20;;;13.40;75.20;;;;;;5048214;28;20831;-84
2022/11/09 03:08:31;;;;;;;7.03;3.70;;;13.40;75.80;;;;;;5049120;28;20933;-84
2022/11/09 03:11:34;;;;;;;6.83;3.50;;;13.40;78.60;;;;;;5055244;28;20418;-84
2022/11/09 03:17:22;;;;;;;2.93;2.73;;;13.50;77.10;;;;;;5039904;28;20486;-91
2022/11/09 03:23:52;;;;;;;3.13;2.93;;;13.60;70.80;;;;;;5045830;28;20222;-90
2022/11/09 03:29:40;;;;;;;4.20;2.17;;;13.60;60.50;;;;;;5036067;28;20463;-90
2022/11/09 03:32:11;;;;;;;6.67;3.03;;;13.60;58.00;;;;;;5052184;28;20449;-90
2022/11/09 03:34:40;;;;;;;3.50;2.60;;;13.60;54.90;;;;;;5042612;28;20180;-90
2022/11/09 03:37:10;;;;;;;3.23;2.40;;;13.70;55.80;;;;;;5039784;28;20415;-90
2022/11/09 03:39:52;;;;;;;3.43;3.13;;;13.70;51.30;;;;;;5043626;28;20784;-90
2022/11/09 03:45:40;;;;;;;12.43;3.70;;;13.70;52.70;;;;;;5043215;28;20903;-89
2022/11/09 03:48:58;;;;;;;3.20;2.90;;;13.70;45.30;;;;;;5054671;28;20501;-90
2022/11/09 03:51:28;;;;;;;4.37;2.73;;;13.70;45.20;;;;;;5045123;28;20839;-91
2022/11/09 04:04:00;;;;;;;8.20;3.50;;;13.70;45.20;;;;;;5056007;28;20821;-83
2022/11/09 04:06:28;;;;;;;6.53;3.00;;;13.70;45.20;;;;;;5036138;28;20431;-84
2022/11/09 04:09:28;;;;;;;3.40;3.10;;;13.70;45.20;;;;;;5046484;28;20184;-84
2022/11/09 04:11:58;;;;;;;5.53;3.23;;;13.70;45.20;;;;;;5046761;28;20476;-84
2022/11/09 04:18:00;;;;;;;4.27;3.00;;;13.70;45.20;;;;;;5041552;28;20902;-90
2022/11/09 04:20:58;;;;;;;4.13;2.80;;;13.70;45.20;;;;;;5048029;28;21030;-90
2022/11/09 04:24:04;;;;;;;8.10;2.90;;;13.60;45.30;;;;;;5052583;28;20422;-90
2022/11/09 04:29:51;;;;;;;3.80;3.20;;;13.60;45.10;;;;;;5047534;28;20405;-90
2022/11/09 04:33:10;;;;;;;3.80;2.80;;;13.50;45.00;;;;;;5049113;28;20411;-90
2022/11/09 04:49:03;;;;;;;9.47;4.17;;;13.50;45.00;;;;;;5040925;28;20401;-84
2022/11/09 04:52:16;;;;;;;10.80;3.50;;;13.50;45.00;;;;;;5071483;28;20433;-83
2022/11/09 04:55:16;;;;;;;3.70;3.40;;;13.50;48.50;;;;;;5042219;28;20731;-83
2022/11/09 05:01:10;;;;;;;4.70;3.93;;;13.50;64.60;;;;;;5033890;28;20418;-80
2022/11/09 05:03:36;;;;;;;9.67;4.63;;;13.50;65.90;;;;;;5041616;28;20445;-81
2022/11/09 05:06:30;;;;;;;8.10;4.63;;;13.60;64.60;;;;;;5045665;28;20434;-80
2022/11/09 05:08:53;;;;;;;9.67;4.83;;;13.60;63.80;;;;;;5052211;28;20563;-81
2022/11/09 05:11:19;;;;;;;10.27;5.20;;;13.60;61.70;;;;;;5041777;28;20422;-81
2022/11/09 05:13:45;;;;;;;6.20;5.30;;;13.60;64.20;;;;;;5043482;28;20801;-85
2022/11/09 05:16:17;;;;;;;8.57;5.83;;;13.70;60.50;;;;;;5052843;28;20202;-85
2022/11/09 05:19:16;;;;;;;9.03;5.70;;;13.70;59.30;;;;;;5048439;28;20445;-85
2022/11/09 05:25:28;;;;;;;8.33;5.83;;;13.70;59.30;;;;;;5047413;28;20434;-85
2022/11/09 05:28:22;;;;;;;8.33;6.57;;;13.60;58.80;;;;;;5027789;28;20451;-86
2022/11/09 05:30:52;;;;;;;9.63;7.47;;;13.60;66.90;;;;;;5051563;28;20390;-81
2022/11/09 05:33:22;;;;;;;13.27;7.43;;;13.50;71.00;;;;;;5045297;28;20981;-81
2022/11/09 05:36:05;;;;;;;9.83;6.70;;;13.50;69.30;;;;;;5039739;28;20942;-80
2022/11/09 05:39:04;;;;;;;12.50;6.90;;;13.60;73.10;;;;;;5040794;28;20417;-81
2022/11/09 05:41:34;;;;;;;11.60;6.90;;;13.60;72.10;;;;;;5051085;28;20454;-80
2022/11/09 05:47:52;;;;;;;13.20;6.73;;;13.50;72.90;;;;;;5044914;28;20493;-87
2022/11/09 06:00:22;;;;;;;12.50;7.37;;;13.40;83.00;;;;;;5052198;28;20468;-81
2022/11/09 06:02:48;;;;;;;13.83;7.60;;;13.50;84.80;;;;;;5051149;28;20464;-81
2022/11/09 06:05:19;;;;;;;14.37;8.27;;;13.50;84.60;;;;;;5039572;28;20446;-80
2022/11/09 06:08:16;;;;;;;10.87;8.00;;;13.60;83.00;;;;;;5044310;28;20257;-80
2022/11/09 06:10:42;;;;;;;12.07;8.27;;;13.50;85.50;;;;;;5046365;28;20454;-81
2022/11/09 06:13:28;;;;;;;16.43;9.30;;;13.40;87.50;;;;;;5036266;28;20431;-81
2022/11/09 06:19:28;;;;;;;14.97;9.50;;;13.50;85.30;;;;;;5046255;28;20467;-85
2022/11/09 06:25:16;;;;;;;18.90;9.80;;;13.50;86.70;;;;;;5047699;28;20825;-84
2022/11/09 06:28:10;;;;;;;22.87;10.87;;;13.50;84.10;;;;;;5041604;28;20406;-86
2022/11/09 06:33:58;;;;;;;16.07;9.80;;;13.50;86.50;;;;;;5038679;28;20778;-85
2022/11/09 06:36:28;;;;;;;18.03;12.37;;;13.40;86.60;;;;;;5050155;28;20418;-85
2022/11/09 06:39:22;;;;;;;15.77;11.27;;;13.50;88.90;;;;;;5062866;28;20634;-85
2022/11/09 06:41:59;;;;;;;19.90;10.40;;;13.30;92.10;;;;;;5062744;28;20540;-85
2022/11/09 06:44:25;;;;;;;18.80;11.17;;;13.40;92.30;;;;;;5041985;28;20419;-80
2022/11/09 06:47:16;;;;;;;19.70;11.83;;;13.40;92.80;;;;;;5049765;28;20438;-80
2022/11/09 06:49:47;;;;;;;18.70;11.63;;;13.30;91.20;;;;;;5052122;28;20652;-81
2022/11/09 06:52:17;;;;;;;23.47;12.30;;;13.40;93.00;;;;;;5046245;28;20433;-80
2022/11/09 06:55:10;;;;;;;16.30;11.40;;;13.40;91.90;;;;;;5060147;28;20825;-81
2022/11/09 06:57:41;;;;;;;19.93;10.90;;;13.40;93.10;;;;;;5041919;28;20440;-80
2022/11/09 07:04:04;;;;;;;16.90;10.10;;;13.40;91.80;;;;;;5050551;28;20445;-85
2022/11/09 07:06:41;;;;;;;15.20;9.33;;;13.40;92.20;;;;;;5054249;28;20453;-86
2022/11/09 07:09:28;;;;;;;14.87;9.33;;;13.50;91.40;;;;;;5053995;28;20433;-85
2022/11/09 07:15:17;;;;;;;19.77;8.53;;;13.50;90.20;;;;;;5039256;28;20514;-83
2022/11/09 07:17:47;;;;;;;12.20;7.63;;;13.60;91.00;;;;;;5050291;28;20802;-86
2022/11/09 07:23:41;;;;;;;13.20;7.77;;;13.70;81.90;;;;;;5050612;28;21051;-87
2022/11/09 07:26:07;;;;;;;13.53;7.07;;;13.70;74.60;;;;;;5043031;28;20445;-86
2022/11/09 07:28:34;;;;;;;15.33;8.23;;;13.80;72.60;;;;;;5035236;28;20922;-86
2022/11/09 07:31:05;;;;;;;12.67;8.60;;;13.80;69.70;;;;;;5034101;28;20418;-86
2022/11/09 07:33:32;;;;;;;13.83;8.27;;;13.90;68.30;;;;;;5047578;28;20460;-85
2022/11/09 07:35:59;;;;;;;13.50;7.87;;;13.90;65.40;;;;;;5043475;28;20471;-86
2022/11/09 07:38:25;;;;;;;12.30;7.30;;;14.00;61.60;;;;;;5052782;28;20410;-85
2022/11/09 07:40:51;;;;;;;17.63;8.10;;;14.10;60.20;;;;;;5052655;28;20514;-85
2022/11/09 07:43:17;;;;;;;10.27;7.60;;;14.20;45.90;;;;;;5049477;28;20600;-85
2022/11/09 07:45:43;;;;;;;15.63;8.40;;;14.20;45.70;;;;;;5052087;28;20164;-93
2022/11/09 07:48:10;;;;;;;14.57;8.37;;;14.10;49.80;;;;;;5051774;28;20573;-93
2022/11/09 07:50:38;;;;;;;9.50;7.60;;;14.20;45.80;;;;;;5044850;28;20179;-81
2022/11/09 07:53:14;;;;;;;12.77;7.30;;;14.20;45.60;;;;;;5042888;28;20434;-88
2022/11/09 07:55:41;;;;;;;11.00;7.60;;;14.20;49.70;;;;;;5050234;28;20428;-82
2022/11/09 07:58:13;;;;;;;9.85;7.55;;;14.20;45.60;;;;;;5049827;28;20552;-79
2022/11/09 08:00:40;;;;;;;15.53;7.67;;;14.10;45.70;;;;;;5044819;28;20194;-82
2022/11/09 08:03:06;;;;;;;12.07;7.20;;;14.20;45.60;;;;;;5047437;28;20541;-82
2022/11/09 08:05:31;;;;;;;12.10;7.10;;;14.20;45.60;;;;;;5033673;28;20541;-80
2022/11/09 08:08:03;;;;;;;7.77;6.93;;;14.10;45.60;;;;;;5049023;28;20186;-82
2022/11/09 08:10:31;;;;;;;9.40;7.30;;;14.20;49.70;;;;;;5037582;28;20188;-79
2022/11/09 08:13:00;;;;;;;8.83;6.37;;;14.20;45.60;;;;;;5050368;28;20421;-81
2022/11/09 08:15:35;;;;;;;7.43;6.07;;;14.20;45.80;;;;;;5049302;28;20509;-83
2022/11/09 08:18:05;;;;;;;10.13;6.17;;;14.20;45.60;;;;;;5042777;28;20511;-82
2022/11/09 08:20:31;;;;;;;16.73;6.80;;;14.20;45.90;;;;;;5050033;28;20974;-82
2022/11/09 08:22:57;;;;;;;10.00;5.60;;;14.20;45.80;;;;;;5051077;28;20453;-82
2022/11/09 08:25:22;;;;;;;8.70;6.30;;;14.20;45.80;;;;;;5048220;28;20510;-79
2022/11/09 08:27:48;;;;;;;7.77;6.30;;;14.20;45.80;;;;;;5051361;28;20426;-80
2022/11/09 08:30:16;;;;;;;6.43;5.30;;;14.30;45.70;;;;;;5050443;28;20596;-79
2022/11/09 08:32:43;;;;;;;6.80;5.37;;;14.20;45.80;;;;;;5045240;28;20184;-80
2022/11/09 08:35:16;;;;;;;9.20;6.33;;;14.00;45.50;;;;;;5050917;28;20533;-80
2022/11/09 08:37:45;;;;;;;6.97;6.27;;;14.00;45.40;;;;;;5045835;28;20909;-80
2022/11/09 08:40:21;;;;;;;11.77;6.80;;;14.10;45.60;;;;;;5044522;28;20795;-79
2022/11/09 08:42:47;;;;;;;10.70;7.80;;;14.10;45.60;;;;;;5047880;28;20852;-80
2022/11/09 08:45:22;;;;;;;9.43;7.10;;;14.00;45.60;;;;;;5041053;28;20445;-80
2022/11/09 08:48:06;;;;;;;9.67;7.23;;;14.00;45.50;;;;;;5049557;28;20882;-80
2022/11/09 08:53:53;;;;;;;9.80;7.13;;;14.10;45.60;;;;;;5040770;28;20445;-74
2022/11/09 08:56:19;;;;;;;7.87;6.70;;;14.10;45.80;;;;;;5040459;28;20826;-74
2022/11/09 08:58:58;;;;;;;7.50;6.47;;;14.10;45.60;;;;;;5051366;28;20191;-81
2022/11/09 09:01:28;;;;;;;8.80;7.47;;;13.90;45.30;;;;;;5049123;28;20670;-83
2022/11/09 09:04:10;;;;;;;12.20;6.60;;;13.90;45.40;;;;;;5044669;28;20421;-81
2022/11/09 09:06:52;;;;;;;7.47;6.77;;;14.00;45.40;;;;;;5047344;28;20935;-81
2022/11/09 09:09:18;;;;;;;8.30;6.10;;;14.00;45.50;;;;;;5049656;28;20434;-79
2022/11/09 09:11:44;;;;;;;6.67;5.97;;;14.10;45.60;;;;;;5054259;28;20440;-80
2022/11/09 09:14:10;;;;;;;12.13;6.30;;;14.10;45.60;;;;;;5051790;28;20634;-77
2022/11/09 09:17:10;;;;;;;6.50;5.70;;;14.30;46.00;;;;;;5053336;28;20175;-78
2022/11/09 09:19:36;;;;;;;7.00;5.47;;;14.40;45.80;;;;;;5036718;28;20435;-78
2022/11/09 09:22:22;;;;;;;6.20;5.53;;;14.40;45.90;;;;;;5033309;28;20526;-77
2022/11/09 09:24:59;;;;;;;5.10;4.60;;;14.60;30.80;;;;;;5044743;28;20180;-78
2022/11/09 09:27:35;;;;;;;7.13;5.17;;;14.80;27.90;;;;;;5053075;28;20521;-78
2022/11/09 09:30:01;;;;;;;6.10;4.27;;;14.90;17.20;;;;;;5042934;28;20443;-78
2022/11/09 09:32:28;;;;;;;4.17;3.80;;;15.00;16.00;;;;;;5049089;28;20453;-78
2022/11/09 09:35:05;;;;;;;5.93;4.20;;;14.90;11.60;;;;;;5042935;28;20885;-78
2022/11/09 09:37:42;;;;;;;18.43;3.37;;;15.00;8.90;;;;;;5050359;28;20465;-77
2022/11/09 09:40:22;;;;;;;3.20;3.00;;;15.10;9.50;;;;;;5049309;28;20790;-74
2022/11/09 09:42:49;;;;;;;3.47;2.57;;;15.20;3.40;;;;;;5042874;28;20579;-73
2022/11/09 09:45:22;;;;;;;2.53;2.33;;;15.30;1.00;;;;;;5047621;28;20757;-73
2022/11/09 09:48:17;;;;;;;3.60;2.50;;;15.30;1.00;;;;;;5050144;28;20465;-73
2022/11/09 09:50:53;;;;;;;5.33;1.90;;;15.50;1.00;;;;;;4973969;28;20416;-73
2022/11/09 09:53:30;;;;;;;3.03;1.57;;;15.50;1.00;;;;;;4975335;28;20418;-74
2022/11/09 09:56:18;;;;;;;2.57;1.90;;;15.50;1.00;;;;;;4973435;28;20444;-73
2022/11/09 09:58:50;;;;;;;1.63;1.53;;;15.40;1.00;;;;;;4974710;28;20791;-73
2022/11/09 10:01:22;;;;;;;2.03;1.30;;;15.30;1.00;;;;;;4974342;28;20445;-73
2022/11/09 10:03:49;;;;;;;1.67;1.57;;;15.30;1.00;;;;;;4970871;28;20434;-73
2022/11/09 10:06:44;;;;;;;8.17;1.23;;;15.30;1.00;;;;;;4974191;28;20504;-73
2022/11/09 10:09:17;;;;;;;2.57;1.23;;;15.30;1.00;;;;;;4974379;28;20901;-73
2022/11/09 10:12:05;;;;;;;3.17;1.27;;;15.40;1.00;;;;;;4974551;28;20421;-73
2022/11/09 10:15:00;;;;;;;1.93;1.50;;;15.40;1.00;;;;;;4974467;28;21006;-73
2022/11/09 10:17:44;;;;;;;1.80;1.00;;;15.50;1.00;;;;;;4955072;29;20416;-73
2022/11/09 10:20:40;;;;;;;3.00;1.30;;;15.60;1.00;;;;;;4954607;29;20960;-73
2022/11/09 10:23:34;;;;;;;2.23;1.40;;;15.50;1.00;;;;;;4945196;29;20523;-73
2022/11/09 10:26:09;;;;;;;1.23;1.00;;;15.60;1.00;;;;;;4952146;28;20480;-72
2022/11/09 10:28:40;;;;;;;3.40;1.03;;;15.80;1.00;;;;;;5004911;28;20414;-73
2022/11/09 10:31:16;;;;;;;3.27;1.30;;;15.80;1.00;;;;;;5013134;28;20948;-74
2022/11/09 10:33:53;;;;;;;1.47;1.00;;;15.80;1.00;;;;;;5011206;28;20934;-71
2022/11/09 10:36:45;;;;;;;1.03;0.90;;;15.80;1.00;;;;;;5004368;28;20444;-70
2022/11/09 10:39:13;;;;;;;6.30;1.90;;;15.90;1.00;;;;;;4947392;29;20511;-70
2022/11/09 10:41:46;;;;;;;3.13;1.13;;;16.00;1.00;;;;;;4952267;29;20475;-70
2022/11/09 10:44:16;;;;;;;2.00;0.90;;;16.30;1.00;;;;;;4953863;29;20462;-70
2022/11/09 10:47:04;;;;;;;3.13;1.30;;;16.40;1.00;;;;;;4952614;29;20880;-70
2022/11/09 10:49:30;;;;;;;1.10;1.00;;;16.50;1.00;;;;;;4941847;29;20429;-70
2022/11/09 10:51:56;;;;;;;1.10;0.90;;;16.60;1.00;;;;;;4954787;29;20462;-70
2022/11/09 10:54:26;;;;;;;3.60;1.10;;;16.90;1.00;;;;;;4962577;28;20978;-70
2022/11/09 10:57:02;;;;;;;6.83;1.00;;;16.90;1.00;;;;;;4972614;28;20245;-69
2022/11/09 10:59:31;;;;;;;2.13;1.27;;;16.90;1.00;;;;;;4973366;28;20418;-70
2022/11/09 11:01:57;;;;;;;2.33;0.80;;;17.00;1.00;;;;;;4962295;28;20525;-70
2022/11/09 11:04:24;;;;;;;1.53;0.90;;;17.10;1.00;;;;;;4969889;28;20514;-72
2022/11/09 11:06:51;;;;;;;3.30;0.77;;;17.30;1.00;;;;;;4963484;28;20455;-72
2022/11/09 11:09:20;;;;;;;3.17;1.27;;;17.30;1.00;;;;;;4953121;28;20458;-72
2022/11/09 11:11:46;;;;;;;3.13;0.87;;;17.10;1.00;;;;;;4971521;28;20429;-72
2022/11/09 11:14:27;;;;;;;2.40;1.00;;;17.40;1.00;;;;;;4973447;28;20414;-72
2022/11/09 11:16:54;;;;;;;1.80;0.80;;;17.30;1.00;;;;;;5028670;28;20481;-72
2022/11/09 11:19:38;;;;;;;2.37;0.80;;;17.00;1.00;;;;;;5039236;28;20433;-72
2022/11/09 11:22:10;;;;;;;2.20;0.87;;;17.00;1.00;;;;;;5040719;28;20475;-72
2022/11/09 11:24:52;;;;;;;7.60;3.60;;;17.20;1.00;;;;;;5048732;28;20423;-72
2022/11/09 11:27:27;;;;;;;1.97;0.90;;;17.20;1.00;;;;;;5046076;28;20487;-72
2022/11/09 11:29:58;;;;;;;1.73;1.20;;;17.20;1.00;;;;;;5069077;28;20408;-72
2022/11/09 11:32:24;;;;;;;1.23;1.13;;;17.10;1.00;;;;;;5054732;28;20425;-70
2022/11/09 11:34:50;;;;;;;1.23;0.90;;;17.00;1.00;;;;;;5056368;28;20462;-71
2022/11/09 11:37:41;;;;;;;3.03;1.00;;;16.90;1.00;;;;;;5052519;28;20922;-72
2022/11/09 11:40:23;;;;;;;0.90;0.90;;;16.80;1.00;;;;;;5045110;28;20262;-72
2022/11/09 11:43:15;;;;;;;1.30;1.10;;;16.80;1.00;;;;;;5047654;28;20468;-72
2022/11/09 11:46:05;;;;;;;2.40;0.90;;;16.80;1.00;;;;;;5048893;28;20415;-72
2022/11/09 11:48:49;;;;;;;1.57;1.13;;;17.00;1.00;;;;;;4973492;28;20411;-70
2022/11/09 11:51:32;;;;;;;1.40;1.10;;;17.00;1.00;;;;;;4971050;28;20461;-70
2022/11/09 11:54:05;;;;;;;3.13;1.23;;;17.00;1.00;;;;;;4972107;28;21564;-70
2022/11/09 11:56:46;;;;;;;1.03;1.00;;;17.10;1.00;;;;;;4972660;28;20828;-70
2022/11/09 11:59:29;;;;;;;1.40;1.30;;;17.00;1.00;;;;;;4977780;28;20914;-71
2022/11/09 12:02:28;;;;;;;1.33;1.23;;;17.10;1.00;;;;;;4960074;28;20562;-71
2022/11/09 12:05:16;;;;;;;2.80;1.27;;;17.00;1.00;;;;;;4975244;28;20440;-72
2022/11/09 12:08:11;;;;;;;5.73;1.70;;;17.10;1.00;;;;;;4953277;28;20914;-72
2022/11/09 12:10:56;;;;;;;2.93;1.20;;;17.30;1.00;;;;;;4934723;29;20570;-72
2022/11/09 12:13:38;;;;;;;1.03;1.03;;;17.30;1.00;;;;;;4934296;29;20907;-72
2022/11/09 12:16:12;;;;;;;2.40;1.07;;;17.30;1.00;;;;;;4946067;29;20407;-72
2022/11/09 12:19:20;;;;;;;2.90;1.10;;;17.30;1.00;;;;;;4946289;29;20436;-72
2022/11/09 12:22:23;;;;;;;2.13;1.10;;;17.30;1.00;;;;;;4939315;29;20446;-72
2022/11/09 12:25:01;;;;;;;1.87;1.10;;;17.20;1.00;;;;;;4935892;28;20942;-72
2022/11/09 12:27:45;;;;;;;4.30;0.90;;;17.40;1.00;;;;;;4990842;28;20405;-72
2022/11/09 12:30:13;;;;;;;2.27;1.03;;;17.40;1.00;;;;;;4991831;28;20932;-72
2022/11/09 12:32:58;;;;;;;4.50;1.20;;;17.20;1.00;;;;;;4991123;28;20510;-72
2022/11/09 12:35:38;;;;;;;2.87;1.13;;;17.10;1.00;;;;;;4991503;28;20400;-72
2022/11/09 12:38:17;;;;;;;3.10;1.07;;;17.00;1.00;;;;;;4991354;28;20408;-72
2022/11/09 12:41:07;;;;;;;7.50;1.10;;;17.10;1.00;;;;;;4990752;28;20415;-72
2022/11/09 12:43:44;;;;;;;2.70;1.00;;;17.10;1.00;;;;;;4995487;28;20995;-72
2022/11/09 12:46:12;;;;;;;1.00;0.90;;;17.10;1.00;;;;;;4999733;28;20424;-72
2022/11/09 12:48:38;;;;;;;2.83;0.90;;;17.00;1.00;;;;;;5051600;28;20407;-71
2022/11/09 12:51:06;;;;;;;3.33;1.00;;;16.90;1.00;;;;;;5049614;28;20433;-71
2022/11/09 12:53:35;;;;;;;3.23;0.97;;;16.90;1.00;;;;;;5043422;28;20401;-71
2022/11/09 12:56:12;;;;;;;7.33;1.00;;;16.90;1.00;;;;;;5046067;28;20402;-71
2022/11/09 12:58:38;;;;;;;3.00;1.20;;;16.90;1.00;;;;;;5036851;28;20403;-71
2022/11/09 13:01:09;;;;;;;2.23;1.00;;;16.70;1.00;;;;;;5047212;28;20400;-71
2022/11/09 13:03:38;;;;;;;3.80;1.40;;;16.80;1.00;;;;;;5051123;28;21004;-74
2022/11/09 13:06:28;;;;;;;3.53;1.17;;;16.80;1.00;;;;;;5052580;28;20470;-72
2022/11/09 13:09:01;;;;;;;3.37;0.90;;;16.80;1.00;;;;;;5044484;28;20444;-75
2022/11/09 13:11:40;;;;;;;4.50;1.00;;;16.90;1.00;;;;;;5038015;28;20414;-80
2022/11/09 13:14:35;;;;;;;1.77;0.90;;;16.80;1.00;;;;;;5050312;28;20416;-78
2022/11/09 13:17:26;;;;;;;5.07;1.10;;;16.70;1.00;;;;;;5051648;28;20410;-79
2022/11/09 13:20:29;;;;;;;3.73;1.10;;;16.50;1.00;;;;;;4976706;28;20417;-77
2022/11/09 13:22:54;;;;;;;2.20;1.00;;;16.50;1.00;;;;;;4973869;28;20536;-77
2022/11/09 13:25:43;;;;;;;2.80;1.10;;;16.60;1.00;;;;;;4975762;28;20510;-78
2022/11/09 13:28:29;;;;;;;6.60;1.03;;;16.80;1.00;;;;;;4959812;28;20180;-78
2022/11/09 13:31:09;;;;;;;2.13;0.80;;;16.80;1.00;;;;;;4976025;28;20435;-79
2022/11/09 13:33:47;;;;;;;5.70;1.17;;;16.80;1.00;;;;;;4976444;28;20562;-78
2022/11/09 13:36:18;;;;;;;5.53;1.10;;;16.70;1.00;;;;;;4977018;28;20438;-79
2022/11/09 13:39:27;;;;;;;1.83;1.13;;;16.70;1.00;;;;;;4976228;28;20450;-78
2022/11/09 13:42:22;;;;;;;6.83;1.23;;;16.60;1.00;;;;;;4975509;28;20441;-78
2022/11/09 13:45:20;;;;;;;3.83;1.10;;;16.60;1.00;;;;;;4966854;28;20393;-78
2022/11/09 13:47:50;;;;;;;2.27;0.93;;;16.50;1.00;;;;;;4902543;29;20482;-78
2022/11/09 13:50:20;;;;;;;2.03;1.30;;;16.50;1.00;;;;;;4918397;29;20422;-78
2022/11/09 13:53:01;;;;;;;5.20;1.20;;;16.50;1.00;;;;;;4917927;29;20931;-78
2022/11/09 13:55:34;;;;;;;2.73;1.17;;;16.30;1.00;;;;;;4916213;29;20404;-79
2022/11/09 13:58:39;;;;;;;6.00;1.20;;;16.20;1.00;;;;;;4992874;28;20404;-79
2022/11/09 14:01:30;;;;;;;6.93;1.77;;;16.30;1.00;;;;;;4918586;29;20430;-79
2022/11/09 14:04:32;;;;;;;2.70;1.43;;;16.30;1.00;;;;;;4917194;29;20407;-77
2022/11/09 14:07:05;;;;;;;9.10;1.40;;;16.30;1.00;;;;;;4918294;29;20410;-78
2022/11/09 14:10:17;;;;;;;3.40;1.00;;;16.40;1.00;;;;;;4918201;29;20876;-78
2022/11/09 14:13:04;;;;;;;7.10;1.20;;;16.40;1.00;;;;;;4917262;29;20468;-78
2022/11/09 14:15:52;;;;;;;2.27;1.27;;;16.40;1.00;;;;;;4918128;29;20477;-78
2022/11/09 14:18:50;;;;;;;3.30;1.40;;;16.40;1.00;;;;;;4918018;29;20500;-78
2022/11/09 14:21:36;;;;;;;1.73;1.07;;;16.30;1.00;;;;;;4910415;29;20468;-79
2022/11/09 14:24:13;;;;;;;2.73;1.00;;;16.00;1.00;;;;;;4944469;29;20435;-80
2022/11/09 14:27:25;;;;;;;2.20;1.27;;;16.00;1.00;;;;;;4955959;29;20954;-79
2022/11/09 14:30:01;;;;;;;4.03;1.33;;;16.00;1.00;;;;;;4948151;29;20402;-79
2022/11/09 14:32:49;;;;;;;2.00;1.10;;;16.00;1.00;;;;;;5027459;28;21001;-79
2022/11/09 14:35:32;;;;;;;3.47;1.20;;;16.00;1.00;;;;;;5056279;28;20486;-79
2022/11/09 14:38:12;;;;;;;7.13;1.30;;;16.00;1.00;;;;;;5049910;28;20388;-79
2022/11/09 14:40:46;;;;;;;3.17;1.00;;;15.80;1.00;;;;;;5040731;28;20409;-79
2022/11/09 14:43:35;;;;;;;5.60;1.20;;;15.70;1.00;;;;;;5055386;28;20457;-79
2022/11/09 14:46:41;;;;;;;13.37;1.80;;;15.70;1.00;;;;;;5042387;28;20476;-79
2022/11/09 14:49:12;;;;;;;4.47;1.10;;;15.50;1.00;;;;;;5054451;28;20421;-79
2022/11/09 14:51:39;;;;;;;10.03;1.50;;;15.40;1.00;;;;;;5042874;28;20423;-79
2022/11/09 14:54:25;;;;;;;4.27;1.30;;;15.30;1.00;;;;;;5044291;28;20427;-79
2022/11/09 14:57:00;;;;;;;5.60;1.77;;;15.20;1.00;;;;;;5052287;28;20404;-79
2022/11/09 14:59:35;;;;;;;1.93;1.20;;;15.20;1.00;;;;;;5045272;28;20896;-79
2022/11/09 15:02:20;;;;;;;3.43;1.30;;;15.20;1.00;;;;;;5037977;28;20450;-78
2022/11/09 15:05:01;;;;;;;2.23;1.20;;;15.20;1.00;;;;;;5053737;28;20406;-78
2022/11/09 15:07:45;;;;;;;2.07;1.30;;;15.20;1.00;;;;;;5051727;28;20422;-78
2022/11/09 15:10:31;;;;;;;8.50;1.20;;;15.10;1.00;;;;;;5050061;28;20406;-78
2022/11/09 15:13:06;;;;;;;4.53;1.20;;;14.90;1.00;;;;;;5051301;28;20415;-78
2022/11/09 15:15:59;;;;;;;2.40;1.00;;;14.90;1.00;;;;;;5041149;28;20414;-78
2022/11/09 15:18:33;;;;;;;3.30;1.13;;;14.70;1.00;;;;;;5047446;28;20426;-79
2022/11/09 15:21:26;;;;;;;8.13;1.10;;;14.70;1.00;;;;;;5054178;28;20417;-78
2022/11/09 15:24:06;;;;;;;3.67;1.30;;;14.80;1.00;;;;;;5054940;28;20426;-78
2022/11/09 15:26:59;;;;;;;1.37;0.97;;;14.70;1.00;;;;;;5045213;28;20917;-79
2022/11/09 15:29:59;;;;;;;2.80;1.10;;;14.70;1.00;;;;;;5047181;28;20411;-80
2022/11/09 15:32:25;;;;;;;5.13;1.07;;;14.60;1.00;;;;;;5052265;28;20431;-78
2022/11/09 15:34:56;;;;;;;4.17;1.43;;;14.50;1.00;;;;;;5055047;28;20963;-79
2022/11/09 15:37:27;;;;;;;5.30;1.37;;;14.50;1.00;;;;;;5040000;28;20455;-78
2022/11/09 15:39:55;;;;;;;6.30;1.30;;;14.40;1.00;;;;;;5048137;28;20419;-79
2022/11/09 15:42:25;;;;;;;2.77;1.20;;;14.30;1.00;;;;;;5051811;28;20941;-80
2022/11/09 15:45:15;;;;;;;1.87;1.10;;;14.20;1.00;;;;;;5053429;28;20438;-80
2022/11/09 15:48:00;;;;;;;6.70;1.20;;;14.20;1.00;;;;;;5044069;28;20419;-80
2022/11/09 15:50:59;;;;;;;4.97;1.10;;;14.10;1.00;;;;;;5033606;28;20462;-84
2022/11/09 15:57:23;;;;;;;2.30;1.00;;;14.10;1.00;;;;;;5047087;28;20467;-88
2022/11/09 16:06:47;;;;;;;1.90;1.00;;;13.90;1.00;;;;;;5050964;28;20445;-90
2022/11/09 16:12:36;;;;;;;5.60;1.37;;;13.90;1.00;;;;;;5051415;28;20401;-91
2022/11/09 16:15:06;;;;;;;5.57;1.40;;;13.90;1.00;;;;;;5052714;28;20433;-90
2022/11/09 16:21:09;;;;;;;3.63;1.20;;;13.90;1.00;;;;;;5052670;28;20441;-89
2022/11/09 16:23:53;;;;;;;8.87;1.63;;;13.80;1.00;;;;;;5048814;28;20461;-87
2022/11/09 16:30:00;;;;;;;4.30;1.43;;;13.90;1.00;;;;;;5045099;28;20417;-87
2022/11/09 16:35:47;;;;;;;15.93;1.33;;;13.80;1.00;;;;;;5042698;28;20452;-89
2022/11/09 16:38:21;;;;;;;6.20;1.20;;;13.80;1.00;;;;;;5053434;28;20426;-81
2022/11/09 16:41:18;;;;;;;3.47;1.30;;;13.80;1.00;;;;;;5049444;28;20435;-81
2022/11/09 16:44:03;;;;;;;2.90;1.17;;;13.80;1.00;;;;;;5044658;28;20441;-82
2022/11/09 16:46:30;;;;;;;1.77;1.00;;;13.80;1.00;;;;;;5037048;28;20429;-83
2022/11/09 16:49:00;;;;;;;1.37;1.00;;;13.70;1.00;;;;;;5051378;28;20913;-82
2022/11/09 16:51:26;;;;;;;1.57;0.90;;;13.80;1.00;;;;;;5041843;28;20435;-83
2022/11/09 16:54:00;;;;;;;2.90;0.97;;;13.80;1.00;;;;;;5045757;28;20427;-84